Time;durP1;ratioP1;P1;durP2;ratioP2;P2;SDS_P1;SDS_P2;PMS_P1;PMS_P2;Temp;Humidity;BMP_temperature;BMP_pressure;BME280_temperature;BME280_humidity;BME280_pressure;Samples;Min_cycle;Max_cycle;Signal;HPM_P1;HPM_P2
2021/06/17 00:01:50;;;;;;;10.45;8.77;;;;;;;;;;5045358;28;40058;-79
2021/06/17 00:04:16;;;;;;;12.70;9.80;;;;;;;;;;5042552;27;38122;-79
2021/06/17 00:06:42;;;;;;;11.85;10.32;;;;;;;;;;5043012;27;39762;-78
2021/06/17 00:09:09;;;;;;;14.60;10.23;;;;;;;;;;5043600;27;39905;-78
2021/06/17 00:11:36;;;;;;;10.35;9.35;;;;;;;;;;5051079;28;39987;-80
2021/06/17 00:14:02;;;;;;;12.10;9.43;;;;;;;;;;5043668;27;37268;-79
2021/06/17 00:16:29;;;;;;;11.73;9.75;;;;;;;;;;5064173;27;42285;-79
2021/06/17 00:18:56;;;;;;;10.52;9.20;;;;;;;;;;5043542;28;39108;-80
2021/06/17 00:21:22;;;;;;;11.35;10.18;;;;;;;;;;5048769;27;39463;-78
2021/06/17 00:23:48;;;;;;;11.00;9.90;;;;;;;;;;5045724;28;37364;-80
2021/06/17 00:26:15;;;;;;;13.73;9.63;;;;;;;;;;5047311;27;39420;-79
2021/06/17 00:28:41;;;;;;;13.75;10.00;;;;;;;;;;5048154;28;40055;-77
2021/06/17 00:31:07;;;;;;;10.38;9.18;;;;;;;;;;5045134;28;39356;-80
2021/06/17 00:33:34;;;;;;;11.52;9.35;;;;;;;;;;5041663;28;37954;-79
2021/06/17 00:36:00;;;;;;;12.95;10.45;;;;;;;;;;5047985;27;38511;-80
2021/06/17 00:38:27;;;;;;;11.18;9.15;;;;;;;;;;5042784;27;46214;-80
2021/06/17 00:40:54;;;;;;;12.60;11.30;;;;;;;;;;5050864;28;40367;-80
2021/06/17 00:43:21;;;;;;;13.48;10.23;;;;;;;;;;5044349;27;37516;-80
2021/06/17 00:45:48;;;;;;;12.77;11.15;;;;;;;;;;5044668;27;39079;-80
2021/06/17 00:48:16;;;;;;;12.07;10.60;;;;;;;;;;5044983;28;38593;-79
2021/06/17 00:50:44;;;;;;;16.23;10.90;;;;;;;;;;5060910;27;38650;-79
2021/06/17 00:53:11;;;;;;;12.00;10.75;;;;;;;;;;5044648;28;37315;-77
2021/06/17 00:55:39;;;;;;;14.95;10.70;;;;;;;;;;5044777;28;38130;-79
2021/06/17 00:58:05;;;;;;;12.85;10.20;;;;;;;;;;5041512;27;39237;-79
2021/06/17 01:00:32;;;;;;;11.63;10.43;;;;;;;;;;5043489;28;40695;-80
2021/06/17 01:02:58;;;;;;;12.85;11.48;;;;;;;;;;5047682;27;37551;-81
2021/06/17 01:05:25;;;;;;;11.10;9.98;;;;;;;;;;5037353;27;42530;-79
2021/06/17 01:08:05;;;;;;;12.20;10.88;;;;;;;;;;5047428;27;39148;-79
2021/06/17 01:10:36;;;;;;;12.63;11.23;;;;;;;;;;5044280;28;47102;-78
2021/06/17 01:13:22;;;;;;;13.65;12.25;;;;;;;;;;5042853;28;37721;-79
2021/06/17 01:15:52;;;;;;;17.10;10.98;;;;;;;;;;5052608;28;39263;-79
2021/06/17 01:18:19;;;;;;;11.73;10.52;;;;;;;;;;5045156;27;39808;-80
2021/06/17 01:20:54;;;;;;;12.57;11.38;;;;;;;;;;5045888;28;38936;-79
2021/06/17 01:23:21;;;;;;;13.98;10.98;;;;;;;;;;5045818;27;36705;-80
2021/06/17 01:25:58;;;;;;;12.45;11.07;;;;;;;;;;5042231;27;38775;-79
2021/06/17 01:28:25;;;;;;;13.82;12.25;;;;;;;;;;5046666;27;40527;-79
2021/06/17 01:30:55;;;;;;;15.55;12.02;;;;;;;;;;5046618;27;37827;-79
2021/06/17 01:33:23;;;;;;;14.73;11.90;;;;;;;;;;5047158;27;36834;-79
2021/06/17 01:35:50;;;;;;;13.27;11.18;;;;;;;;;;5051657;27;39186;-79
2021/06/17 01:38:19;;;;;;;12.15;10.98;;;;;;;;;;5051105;27;39308;-80
2021/06/17 01:40:47;;;;;;;13.10;11.75;;;;;;;;;;5068323;27;41916;-79
2021/06/17 01:43:15;;;;;;;13.48;10.88;;;;;;;;;;5047780;28;39902;-80
2021/06/17 01:45:41;;;;;;;13.60;12.30;;;;;;;;;;5078567;27;35978;-80
2021/06/17 01:48:08;;;;;;;12.68;10.95;;;;;;;;;;5052543;27;40519;-80
2021/06/17 01:50:34;;;;;;;14.23;12.70;;;;;;;;;;5052747;28;38737;-79
2021/06/17 01:53:01;;;;;;;12.20;10.82;;;;;;;;;;5050023;28;36075;-79
2021/06/17 01:55:31;;;;;;;12.02;10.50;;;;;;;;;;5043534;27;47117;-79
2021/06/17 01:58:00;;;;;;;15.93;12.80;;;;;;;;;;5025926;28;38201;-79
2021/06/17 02:00:26;;;;;;;14.27;12.52;;;;;;;;;;5045591;27;46701;-80
2021/06/17 02:02:53;;;;;;;12.95;11.60;;;;;;;;;;5045256;28;37515;-80
2021/06/17 02:05:22;;;;;;;13.75;11.40;;;;;;;;;;5067865;27;40890;-80
2021/06/17 02:07:49;;;;;;;14.25;12.68;;;;;;;;;;5053541;27;40063;-79
2021/06/17 02:10:18;;;;;;;14.07;11.18;;;;;;;;;;5076040;27;39633;-79
2021/06/17 02:12:45;;;;;;;19.27;13.32;;;;;;;;;;5056651;28;36114;-78
2021/06/17 02:15:12;;;;;;;15.40;13.32;;;;;;;;;;5046627;27;39829;-79
2021/06/17 02:17:42;;;;;;;15.00;12.95;;;;;;;;;;5049555;28;39439;-79
2021/06/17 02:20:09;;;;;;;14.48;12.95;;;;;;;;;;5041753;27;38842;-79
2021/06/17 02:22:38;;;;;;;17.27;12.90;;;;;;;;;;5049821;28;37831;-79
2021/06/17 02:25:04;;;;;;;13.45;11.95;;;;;;;;;;5050559;27;39760;-80
2021/06/17 02:27:32;;;;;;;15.18;13.02;;;;;;;;;;5046339;27;49106;-80
2021/06/17 02:30:06;;;;;;;14.85;13.25;;;;;;;;;;5048891;27;37287;-79
2021/06/17 02:32:35;;;;;;;15.02;13.48;;;;;;;;;;5041636;27;48636;-80
2021/06/17 02:35:04;;;;;;;16.98;15.20;;;;;;;;;;5055493;28;41125;-81
2021/06/17 02:37:31;;;;;;;14.45;12.80;;;;;;;;;;5050979;28;48428;-80
2021/06/17 02:39:57;;;;;;;14.88;13.15;;;;;;;;;;5060953;27;39781;-79
2021/06/17 02:42:26;;;;;;;15.88;13.40;;;;;;;;;;5064592;27;37877;-79
2021/06/17 02:44:52;;;;;;;16.25;14.45;;;;;;;;;;5053355;28;41552;-79
2021/06/17 02:47:19;;;;;;;16.25;14.75;;;;;;;;;;5043079;28;38210;-80
2021/06/17 02:49:45;;;;;;;16.85;14.98;;;;;;;;;;5047287;27;39042;-79
2021/06/17 02:52:11;;;;;;;14.65;13.15;;;;;;;;;;5047597;28;37662;-80
2021/06/17 02:54:38;;;;;;;14.63;13.23;;;;;;;;;;5046359;28;39384;-80
2021/06/17 02:57:14;;;;;;;16.77;15.18;;;;;;;;;;5042460;27;40160;-79
2021/06/17 02:59:43;;;;;;;18.08;15.40;;;;;;;;;;5041451;28;39835;-79
2021/06/17 03:02:16;;;;;;;15.40;13.70;;;;;;;;;;5045774;27;37255;-79
2021/06/17 03:04:43;;;;;;;17.88;14.35;;;;;;;;;;5046090;27;39892;-80
2021/06/17 03:07:12;;;;;;;16.52;14.30;;;;;;;;;;5045518;28;39468;-80
2021/06/17 03:09:41;;;;;;;17.63;14.65;;;;;;;;;;5044180;28;38824;-80
2021/06/17 03:12:08;;;;;;;16.45;14.75;;;;;;;;;;5048886;28;37142;-81
2021/06/17 03:14:36;;;;;;;19.10;15.40;;;;;;;;;;5046554;28;39685;-80
2021/06/17 03:17:04;;;;;;;17.77;14.63;;;;;;;;;;5043336;27;38850;-81
2021/06/17 03:19:31;;;;;;;15.50;13.88;;;;;;;;;;5059994;27;39529;-79
2021/06/17 03:22:01;;;;;;;15.90;13.70;;;;;;;;;;5045319;28;37287;-80
2021/06/17 03:24:29;;;;;;;17.50;14.82;;;;;;;;;;5040336;28;49170;-80
2021/06/17 03:26:57;;;;;;;19.30;13.35;;;;;;;;;;5042923;27;39859;-80
2021/06/17 03:29:28;;;;;;;16.10;13.30;;;;;;;;;;5042864;27;38447;-78
2021/06/17 03:31:56;;;;;;;16.30;14.32;;;;;;;;;;5047158;28;38794;-80
2021/06/17 03:34:22;;;;;;;14.48;12.95;;;;;;;;;;5023658;27;38780;-79
2021/06/17 03:36:50;;;;;;;15.02;13.40;;;;;;;;;;5028157;27;40063;-80
2021/06/17 03:39:17;;;;;;;13.38;12.10;;;;;;;;;;5021805;28;38365;-79
2021/06/17 03:41:43;;;;;;;15.50;12.45;;;;;;;;;;5023656;27;37114;-80
2021/06/17 03:44:11;;;;;;;14.57;12.90;;;;;;;;;;5024611;28;39343;-80
2021/06/17 03:46:38;;;;;;;14.27;12.77;;;;;;;;;;5025876;27;39909;-79
2021/06/17 03:49:05;;;;;;;15.55;12.88;;;;;;;;;;5023865;28;38683;-81
2021/06/17 03:51:32;;;;;;;13.70;11.85;;;;;;;;;;5035304;28;37110;-80
2021/06/17 03:53:58;;;;;;;13.23;11.82;;;;;;;;;;5050441;28;39545;-79
2021/06/17 03:56:25;;;;;;;13.15;10.88;;;;;;;;;;5049174;28;37729;-78
2021/06/17 03:58:52;;;;;;;18.20;13.48;;;;;;;;;;5050457;28;38843;-80
2021/06/17 04:01:19;;;;;;;14.65;12.40;;;;;;;;;;5051299;27;37122;-81
2021/06/17 04:03:46;;;;;;;17.52;12.98;;;;;;;;;;5041877;28;39649;-79
2021/06/17 04:06:16;;;;;;;15.27;12.25;;;;;;;;;;5052532;27;38641;-80
2021/06/17 04:08:45;;;;;;;13.23;11.80;;;;;;;;;;5053706;27;38524;-80
2021/06/17 04:11:12;;;;;;;19.48;12.52;;;;;;;;;;5054623;27;37103;-81
2021/06/17 04:13:40;;;;;;;13.90;12.48;;;;;;;;;;5053392;27;39462;-80
2021/06/17 04:16:09;;;;;;;14.73;11.65;;;;;;;;;;5046994;27;39839;-80
2021/06/17 04:18:36;;;;;;;13.25;11.75;;;;;;;;;;5051523;28;38675;-79
2021/06/17 04:21:03;;;;;;;15.93;11.90;;;;;;;;;;5047858;28;39056;-80
2021/06/17 04:23:31;;;;;;;12.65;11.43;;;;;;;;;;5043425;27;39559;-79
2021/06/17 04:25:57;;;;;;;13.77;12.27;;;;;;;;;;5047381;28;39383;-80
2021/06/17 04:28:26;;;;;;;12.63;11.43;;;;;;;;;;5041889;28;38850;-79
2021/06/17 04:30:54;;;;;;;12.95;11.30;;;;;;;;;;5052798;27;37085;-81
2021/06/17 04:33:21;;;;;;;14.23;11.35;;;;;;;;;;5044644;27;39187;-78
2021/06/17 04:35:48;;;;;;;15.73;10.27;;;;;;;;;;5062772;28;39292;-79
2021/06/17 04:38:15;;;;;;;12.80;11.57;;;;;;;;;;5039740;27;39065;-77
2021/06/17 04:40:42;;;;;;;14.75;12.48;;;;;;;;;;5041886;28;37541;-78
2021/06/17 04:43:09;;;;;;;13.40;11.85;;;;;;;;;;5038197;28;40559;-79
2021/06/17 04:45:36;;;;;;;13.57;11.85;;;;;;;;;;5044570;28;39875;-80
2021/06/17 04:48:08;;;;;;;15.38;12.73;;;;;;;;;;5042458;28;39649;-77
2021/06/17 04:50:34;;;;;;;16.50;12.38;;;;;;;;;;5041563;27;38426;-81
2021/06/17 04:53:04;;;;;;;13.50;11.50;;;;;;;;;;5040143;28;39153;-79
2021/06/17 04:55:31;;;;;;;14.48;10.88;;;;;;;;;;5023627;28;49105;-81
2021/06/17 04:57:57;;;;;;;12.55;10.63;;;;;;;;;;5019814;27;38994;-80
2021/06/17 05:00:24;;;;;;;13.05;11.65;;;;;;;;;;5032467;27;37568;-79
2021/06/17 05:02:50;;;;;;;13.50;11.63;;;;;;;;;;5026277;28;39136;-79
2021/06/17 05:05:16;;;;;;;16.20;12.45;;;;;;;;;;5030574;28;37696;-80
2021/06/17 05:12:59;;;;;;;12.43;11.23;;;;;;;;;;5022255;27;39348;-78
2021/06/17 05:15:26;;;;;;;11.60;10.50;;;;;;;;;;5016908;28;39924;-77
2021/06/17 05:17:52;;;;;;;12.52;11.23;;;;;;;;;;5023021;28;37334;-77
2021/06/17 05:20:18;;;;;;;11.63;10.50;;;;;;;;;;5025595;28;37181;-77
2021/06/17 05:22:45;;;;;;;12.20;11.02;;;;;;;;;;5030332;28;38548;-77
2021/06/17 05:25:12;;;;;;;12.05;10.85;;;;;;;;;;5030381;28;40726;-77
2021/06/17 05:27:39;;;;;;;12.77;10.40;;;;;;;;;;5039518;28;38361;-78
2021/06/17 05:30:06;;;;;;;16.50;11.35;;;;;;;;;;5032865;28;35656;-77
2021/06/17 05:32:33;;;;;;;16.50;11.95;;;;;;;;;;5024778;28;47398;-77
2021/06/17 05:34:59;;;;;;;12.90;11.18;;;;;;;;;;5036183;28;39355;-78
2021/06/17 05:37:27;;;;;;;10.85;9.73;;;;;;;;;;5024070;28;233153;-77
2021/06/17 05:39:53;;;;;;;14.05;10.18;;;;;;;;;;5036425;28;36959;-77
2021/06/17 05:42:19;;;;;;;11.55;10.35;;;;;;;;;;5053976;28;40762;-77
2021/06/17 05:44:46;;;;;;;13.45;9.55;;;;;;;;;;5030703;28;38666;-75
2021/06/17 05:47:13;;;;;;;11.90;10.45;;;;;;;;;;5060670;27;38706;-76
2021/06/17 05:49:40;;;;;;;10.45;9.07;;;;;;;;;;5032581;28;37018;-78
2021/06/17 05:52:06;;;;;;;12.60;10.10;;;;;;;;;;5041793;28;40609;-76
2021/06/17 05:54:33;;;;;;;10.38;9.13;;;;;;;;;;5036480;28;39785;-77
2021/06/17 05:56:59;;;;;;;10.13;9.10;;;;;;;;;;5058972;27;41767;-77
2021/06/17 05:59:25;;;;;;;13.15;9.00;;;;;;;;;;5057980;28;37594;-77
2021/06/17 06:01:52;;;;;;;13.15;9.10;;;;;;;;;;5032726;27;39061;-77
2021/06/17 06:04:18;;;;;;;14.88;9.90;;;;;;;;;;5026334;28;38888;-78
2021/06/17 06:06:44;;;;;;;11.68;10.05;;;;;;;;;;5062750;28;38454;-77
2021/06/17 06:09:11;;;;;;;12.38;10.82;;;;;;;;;;5034533;28;38709;-78
2021/06/17 06:11:38;;;;;;;11.15;10.05;;;;;;;;;;5042763;28;39035;-77
2021/06/17 06:14:04;;;;;;;11.40;10.18;;;;;;;;;;5059089;27;39310;-77
2021/06/17 06:16:30;;;;;;;15.30;9.90;;;;;;;;;;5050000;27;38674;-79
2021/06/17 06:18:57;;;;;;;11.20;8.90;;;;;;;;;;5059999;28;37679;-78
2021/06/17 06:21:23;;;;;;;14.40;8.32;;;;;;;;;;5045461;28;40401;-77
2021/06/17 06:23:49;;;;;;;7.85;6.95;;;;;;;;;;5052664;28;40338;-78
2021/06/17 06:26:16;;;;;;;8.55;6.63;;;;;;;;;;5049441;28;39954;-76
2021/06/17 06:28:42;;;;;;;9.88;5.88;;;;;;;;;;5063333;27;38410;-79
2021/06/17 06:31:10;;;;;;;6.78;5.35;;;;;;;;;;5063522;27;39281;-77
2021/06/17 06:33:36;;;;;;;14.43;4.78;;;;;;;;;;5055394;28;40343;-78
2021/06/17 06:36:03;;;;;;;10.35;5.25;;;;;;;;;;5054364;28;40122;-78
2021/06/17 06:38:29;;;;;;;10.02;4.50;;;;;;;;;;5051146;28;36972;-78
2021/06/17 06:40:56;;;;;;;5.30;3.53;;;;;;;;;;5063294;28;39174;-78
2021/06/17 06:43:22;;;;;;;12.02;3.67;;;;;;;;;;5062987;28;39251;-78
2021/06/17 06:45:49;;;;;;;10.55;3.90;;;;;;;;;;5052402;28;39559;-77
2021/06/17 06:48:16;;;;;;;16.88;3.60;;;;;;;;;;5056488;28;36806;-77
2021/06/17 06:50:43;;;;;;;9.98;3.50;;;;;;;;;;5059452;27;39377;-80
2021/06/17 06:53:09;;;;;;;15.80;3.78;;;;;;;;;;5053166;28;39378;-79
2021/06/17 06:55:36;;;;;;;7.65;3.30;;;;;;;;;;5047560;28;38986;-78
2021/06/17 06:58:02;;;;;;;5.70;3.00;;;;;;;;;;5059589;27;37619;-79
2021/06/17 07:00:29;;;;;;;7.60;2.83;;;;;;;;;;5076399;28;38347;-77
2021/06/17 07:02:55;;;;;;;9.77;3.20;;;;;;;;;;5066684;28;39506;-77
2021/06/17 07:05:22;;;;;;;9.80;2.95;;;;;;;;;;5061872;28;38655;-76
2021/06/17 07:07:48;;;;;;;8.35;3.03;;;;;;;;;;5045962;28;38219;-77
2021/06/17 07:10:14;;;;;;;7.70;2.80;;;;;;;;;;5061173;28;38442;-77
2021/06/17 07:12:41;;;;;;;8.95;2.50;;;;;;;;;;5059602;27;39133;-78
2021/06/17 07:15:08;;;;;;;3.92;2.72;;;;;;;;;;5061198;27;38540;-78
2021/06/17 07:17:34;;;;;;;7.15;2.40;;;;;;;;;;5062564;28;38149;-76
2021/06/17 07:20:00;;;;;;;8.13;2.28;;;;;;;;;;5061563;28;38665;-77
2021/06/17 07:22:27;;;;;;;8.48;2.80;;;;;;;;;;5066733;28;47721;-77
2021/06/17 07:24:53;;;;;;;8.35;3.30;;;;;;;;;;5064037;28;38374;-77
2021/06/17 07:27:20;;;;;;;5.22;2.75;;;;;;;;;;5062509;28;37565;-80
2021/06/17 07:29:47;;;;;;;9.38;3.33;;;;;;;;;;5055938;28;39618;-77
2021/06/17 07:32:13;;;;;;;7.63;3.00;;;;;;;;;;5058923;28;40565;-76
2021/06/17 07:34:42;;;;;;;9.48;3.05;;;;;;;;;;5060031;27;38487;-76
2021/06/17 07:37:08;;;;;;;7.80;3.38;;;;;;;;;;5046042;28;37964;-78
2021/06/17 07:39:35;;;;;;;8.68;2.78;;;;;;;;;;5046764;28;38903;-77
2021/06/17 07:42:01;;;;;;;7.93;2.90;;;;;;;;;;5047020;28;40229;-77
2021/06/17 07:44:28;;;;;;;8.65;3.05;;;;;;;;;;5046989;28;49197;-78
2021/06/17 07:46:54;;;;;;;8.05;2.55;;;;;;;;;;5031150;28;38381;-77
2021/06/17 07:49:20;;;;;;;9.18;2.88;;;;;;;;;;5032856;28;39172;-78
2021/06/17 07:51:47;;;;;;;5.78;2.65;;;;;;;;;;5032813;28;39291;-78
2021/06/17 07:54:18;;;;;;;7.80;2.20;;;;;;;;;;5043593;28;38707;-76
2021/06/17 07:56:45;;;;;;;4.13;3.10;;;;;;;;;;5043457;27;36988;-76
2021/06/17 07:59:12;;;;;;;4.00;2.60;;;;;;;;;;5044079;28;40048;-77
2021/06/17 08:01:38;;;;;;;6.93;3.05;;;;;;;;;;5025307;28;40120;-77
2021/06/17 08:04:07;;;;;;;6.68;2.95;;;;;;;;;;5036721;28;38574;-79
2021/06/17 08:06:33;;;;;;;7.53;2.72;;;;;;;;;;5045264;28;36729;-76
2021/06/17 08:09:00;;;;;;;6.68;2.33;;;;;;;;;;5044205;28;40055;-77
2021/06/17 08:11:27;;;;;;;5.53;2.58;;;;;;;;;;5035621;28;40030;-77
2021/06/17 08:13:53;;;;;;;9.88;2.97;;;;;;;;;;5026084;28;38795;-76
2021/06/17 08:16:20;;;;;;;4.28;2.60;;;;;;;;;;5030544;28;38388;-76
2021/06/17 08:18:46;;;;;;;6.97;2.53;;;;;;;;;;5042438;28;39782;-78
2021/06/17 08:21:13;;;;;;;6.78;2.50;;;;;;;;;;5033356;28;39457;-78
2021/06/17 08:23:39;;;;;;;6.55;2.70;;;;;;;;;;5043654;28;37168;-78
2021/06/17 08:26:07;;;;;;;4.95;2.33;;;;;;;;;;5071422;27;37740;-77
2021/06/17 08:28:34;;;;;;;6.82;2.38;;;;;;;;;;5038054;28;38694;-78
2021/06/17 08:31:00;;;;;;;4.95;2.58;;;;;;;;;;5043261;27;39774;-77
2021/06/17 08:33:27;;;;;;;5.18;2.65;;;;;;;;;;5036581;28;38406;-77
2021/06/17 08:35:53;;;;;;;6.75;2.75;;;;;;;;;;5032591;28;37696;-77
2021/06/17 08:38:20;;;;;;;4.88;3.08;;;;;;;;;;5028739;28;38726;-76
2021/06/17 08:40:47;;;;;;;6.40;2.83;;;;;;;;;;5034182;28;39688;-77
2021/06/17 08:43:13;;;;;;;7.20;2.90;;;;;;;;;;5062797;28;39069;-77
2021/06/17 08:45:40;;;;;;;6.80;2.75;;;;;;;;;;5031713;28;37455;-78
2021/06/17 08:48:07;;;;;;;6.55;3.13;;;;;;;;;;5042577;28;40004;-80
2021/06/17 08:50:33;;;;;;;6.50;3.03;;;;;;;;;;5063953;28;39161;-80
2021/06/17 08:53:00;;;;;;;5.68;3.25;;;;;;;;;;5075235;28;39122;-80
2021/06/17 08:55:27;;;;;;;9.55;3.45;;;;;;;;;;5036429;27;37928;-80
2021/06/17 08:57:55;;;;;;;7.45;2.75;;;;;;;;;;5037205;28;39853;-81
2021/06/17 09:00:22;;;;;;;6.20;2.85;;;;;;;;;;5063866;27;39484;-80
2021/06/17 09:03:11;;;;;;;8.88;3.33;;;;;;;;;;5079965;28;39202;-81
2021/06/17 09:05:39;;;;;;;10.88;3.60;;;;;;;;;;5050406;28;47383;-79
2021/06/17 09:08:07;;;;;;;8.75;3.63;;;;;;;;;;5062692;27;38964;-77
2021/06/17 09:10:34;;;;;;;12.88;4.00;;;;;;;;;;5058509;27;38816;-78
2021/06/17 09:13:01;;;;;;;8.70;3.65;;;;;;;;;;5067255;28;39640;-79
2021/06/17 09:15:32;;;;;;;9.80;3.50;;;;;;;;;;5067860;27;48712;-78
2021/06/17 09:18:28;;;;;;;8.82;3.70;;;;;;;;;;5065850;28;38766;-78
2021/06/17 09:21:07;;;;;;;9.63;3.92;;;;;;;;;;5057027;27;47214;-77
2021/06/17 09:23:37;;;;;;;10.65;3.30;;;;;;;;;;5045203;28;48237;-79
2021/06/17 09:26:03;;;;;;;9.15;3.70;;;;;;;;;;5064243;27;38421;-78
2021/06/17 09:28:44;;;;;;;10.63;3.55;;;;;;;;;;5054511;28;39439;-77
2021/06/17 09:31:15;;;;;;;6.88;3.08;;;;;;;;;;5064291;28;39016;-79
2021/06/17 09:33:45;;;;;;;9.70;2.97;;;;;;;;;;5058334;28;39635;-79
2021/06/17 09:36:12;;;;;;;10.55;3.55;;;;;;;;;;5052888;28;36958;-79
2021/06/17 09:38:46;;;;;;;9.50;3.47;;;;;;;;;;5058965;28;39758;-80
2021/06/17 09:41:28;;;;;;;6.22;2.80;;;;;;;;;;5043614;28;39732;-77
2021/06/17 09:43:54;;;;;;;11.48;3.13;;;;;;;;;;5057141;28;39314;-80
2021/06/17 09:46:21;;;;;;;11.02;3.78;;;;;;;;;;5046484;28;37837;-78
2021/06/17 09:48:50;;;;;;;9.27;3.55;;;;;;;;;;5060794;27;39080;-77
2021/06/17 09:51:29;;;;;;;7.63;3.40;;;;;;;;;;5062221;28;39681;-79
2021/06/17 09:54:10;;;;;;;7.35;2.90;;;;;;;;;;5050676;28;38375;-81
2021/06/17 09:56:38;;;;;;;6.43;2.95;;;;;;;;;;5055520;28;49064;-80
2021/06/17 09:59:05;;;;;;;9.73;3.17;;;;;;;;;;5061925;28;40410;-78
2021/06/17 10:01:34;;;;;;;12.30;3.05;;;;;;;;;;5056929;28;46607;-76
2021/06/17 10:04:02;;;;;;;10.73;2.97;;;;;;;;;;5050606;28;38238;-77
2021/06/17 10:06:29;;;;;;;3.72;1.83;;;;;;;;;;5033346;28;47381;-77
2021/06/17 10:08:55;;;;;;;5.03;2.15;;;;;;;;;;5039760;28;39261;-80
2021/06/17 10:11:22;;;;;;;8.25;2.33;;;;;;;;;;5052483;28;38786;-79
2021/06/17 10:13:49;;;;;;;5.65;2.60;;;;;;;;;;5045073;28;39207;-79
2021/06/17 10:16:19;;;;;;;7.00;2.60;;;;;;;;;;5048259;28;36857;-79
2021/06/17 10:18:45;;;;;;;5.90;2.50;;;;;;;;;;5062925;27;38565;-79
2021/06/17 10:21:14;;;;;;;4.93;2.10;;;;;;;;;;5057968;27;40178;-79
2021/06/17 10:23:43;;;;;;;5.15;2.53;;;;;;;;;;5057827;28;39603;-78
2021/06/17 10:26:09;;;;;;;7.13;2.33;;;;;;;;;;5064227;28;38045;-78
2021/06/17 10:28:40;;;;;;;8.02;2.90;;;;;;;;;;5056580;28;39899;-78
2021/06/17 10:31:07;;;;;;;9.52;2.90;;;;;;;;;;5063432;27;38251;-77
2021/06/17 10:33:37;;;;;;;3.53;2.67;;;;;;;;;;5064031;28;39554;-78
2021/06/17 10:36:37;;;;;;;7.63;2.97;;;;;;;;;;5057484;28;37586;-78
2021/06/17 10:39:09;;;;;;;7.78;3.25;;;;;;;;;;5053943;28;39761;-77
2021/06/17 10:41:56;;;;;;;6.70;3.13;;;;;;;;;;5082097;27;39533;-77
2021/06/17 10:44:38;;;;;;;7.75;2.85;;;;;;;;;;5058547;27;39010;-77
2021/06/17 10:47:05;;;;;;;8.45;3.25;;;;;;;;;;5052974;28;39142;-77
2021/06/17 10:49:50;;;;;;;11.50;3.53;;;;;;;;;;5056061;28;39657;-78
2021/06/17 10:52:26;;;;;;;9.60;2.90;;;;;;;;;;5069018;28;39092;-78
2021/06/17 10:54:57;;;;;;;8.80;3.03;;;;;;;;;;5058237;27;38338;-76
2021/06/17 10:57:50;;;;;;;8.05;2.65;;;;;;;;;;5057633;27;37167;-78
2021/06/17 11:00:23;;;;;;;5.43;2.80;;;;;;;;;;5060053;27;38943;-78
2021/06/17 11:02:53;;;;;;;6.18;2.85;;;;;;;;;;5064752;28;40158;-77
2021/06/17 11:05:32;;;;;;;5.80;2.17;;;;;;;;;;5050132;28;39158;-78
2021/06/17 11:08:17;;;;;;;9.98;2.40;;;;;;;;;;5057291;27;38152;-77
2021/06/17 11:10:44;;;;;;;6.75;2.08;;;;;;;;;;5036204;28;47367;-79
2021/06/17 11:13:25;;;;;;;6.47;2.20;;;;;;;;;;5037530;27;39468;-79
2021/06/17 11:15:52;;;;;;;5.10;1.95;;;;;;;;;;5049713;28;39143;-78
2021/06/17 11:18:37;;;;;;;5.90;2.03;;;;;;;;;;5040234;27;36643;-77
2021/06/17 11:21:04;;;;;;;6.22;1.98;;;;;;;;;;5038903;28;39898;-78
2021/06/17 11:23:31;;;;;;;4.80;2.15;;;;;;;;;;5066080;28;39982;-78
2021/06/17 11:25:59;;;;;;;11.23;2.30;;;;;;;;;;5035411;28;39668;-80
2021/06/17 11:28:46;;;;;;;13.18;2.83;;;;;;;;;;5037914;27;37177;-80
2021/06/17 11:31:32;;;;;;;7.97;2.72;;;;;;;;;;5033507;28;38681;-79
2021/06/17 11:33:59;;;;;;;6.00;2.22;;;;;;;;;;5041439;28;38661;-79
2021/06/17 11:36:27;;;;;;;6.53;2.85;;;;;;;;;;5042132;28;38807;-80
2021/06/17 11:38:53;;;;;;;7.18;1.77;;;;;;;;;;5046053;28;39032;-80
2021/06/17 11:41:22;;;;;;;10.80;3.13;;;;;;;;;;5034898;28;40041;-78
2021/06/17 11:43:52;;;;;;;6.70;2.90;;;;;;;;;;5035866;28;40525;-79
2021/06/17 11:46:23;;;;;;;9.40;2.60;;;;;;;;;;5034662;27;38444;-78
2021/06/17 11:48:53;;;;;;;7.03;2.53;;;;;;;;;;5042884;28;37578;-80
2021/06/17 11:51:20;;;;;;;7.45;2.47;;;;;;;;;;5044060;28;40489;-81
2021/06/17 11:53:50;;;;;;;4.32;2.25;;;;;;;;;;5043698;28;39827;-78
2021/06/17 11:56:23;;;;;;;6.68;2.50;;;;;;;;;;5034642;27;39160;-79
2021/06/17 11:58:49;;;;;;;4.93;2.28;;;;;;;;;;5058315;28;38214;-77
2021/06/17 12:01:16;;;;;;;7.25;2.05;;;;;;;;;;5034330;27;37886;-78
2021/06/17 12:04:04;;;;;;;6.78;2.50;;;;;;;;;;5036340;28;39688;-78
2021/06/17 12:06:32;;;;;;;4.53;2.38;;;;;;;;;;5035867;28;48890;-80
2021/06/17 12:09:08;;;;;;;4.88;2.15;;;;;;;;;;5052979;28;37393;-81
2021/06/17 12:11:35;;;;;;;4.78;1.95;;;;;;;;;;5044091;28;47410;-79
2021/06/17 12:14:04;;;;;;;4.63;2.08;;;;;;;;;;5043170;27;39609;-77
2021/06/17 12:16:31;;;;;;;4.88;2.13;;;;;;;;;;5047096;28;48238;-79
2021/06/17 12:18:57;;;;;;;4.35;2.30;;;;;;;;;;5042689;28;36017;-79
2021/06/17 12:21:23;;;;;;;6.13;2.10;;;;;;;;;;5039149;28;38845;-76
2021/06/17 12:23:50;;;;;;;6.75;2.40;;;;;;;;;;5040156;28;38955;-78
2021/06/17 12:26:16;;;;;;;6.53;2.67;;;;;;;;;;5040188;28;40032;-78
2021/06/17 12:29:01;;;;;;;7.15;2.65;;;;;;;;;;5057863;28;38463;-77
2021/06/17 12:31:38;;;;;;;4.80;2.13;;;;;;;;;;5058594;28;39899;-77
2021/06/17 12:34:15;;;;;;;4.55;2.20;;;;;;;;;;5053851;28;39118;-77
2021/06/17 12:36:42;;;;;;;7.10;2.20;;;;;;;;;;5088898;27;39172;-78
2021/06/17 12:39:10;;;;;;;4.57;2.50;;;;;;;;;;5046173;27;36498;-76
2021/06/17 12:41:47;;;;;;;7.05;2.63;;;;;;;;;;5039717;28;40024;-77
2021/06/17 12:44:30;;;;;;;4.10;2.50;;;;;;;;;;5034282;28;39715;-77
2021/06/17 12:46:59;;;;;;;7.80;3.13;;;;;;;;;;5043035;28;39289;-78
2021/06/17 12:52:01;;;;;;;5.28;2.92;;;;;;;;;;5026785;28;37902;-80
2021/06/17 12:52:14;;;;;;;4.07;2.47;;;;;;;;;;5030025;28;38741;-79
2021/06/17 12:54:42;;;;;;;6.95;2.80;;;;;;;;;;5040125;28;39223;-77
2021/06/17 12:57:11;;;;;;;5.80;3.38;;;;;;;;;;5037846;28;39416;-77
2021/06/17 12:59:39;;;;;;;5.72;3.75;;;;;;;;;;5033366;28;36761;-80
2021/06/17 13:02:06;;;;;;;6.57;3.78;;;;;;;;;;5041906;28;38533;-78
2021/06/17 13:04:33;;;;;;;5.97;3.40;;;;;;;;;;5064905;28;39706;-81
2021/06/17 13:07:00;;;;;;;7.50;4.22;;;;;;;;;;5025993;28;39282;-81
2021/06/17 13:09:28;;;;;;;8.82;4.18;;;;;;;;;;5032451;28;36891;-79
2021/06/17 13:12:05;;;;;;;7.13;4.45;;;;;;;;;;5038290;28;39543;-79
2021/06/17 13:14:32;;;;;;;11.73;4.45;;;;;;;;;;5054806;28;47042;-79
2021/06/17 13:17:02;;;;;;;9.13;4.57;;;;;;;;;;5058420;27;39797;-80
2021/06/17 13:19:29;;;;;;;8.40;4.78;;;;;;;;;;5057943;28;47358;-78
2021/06/17 13:21:59;;;;;;;8.82;5.85;;;;;;;;;;5052508;28;37910;-79
2021/06/17 13:24:25;;;;;;;12.02;5.63;;;;;;;;;;5028630;28;40363;-79
2021/06/17 13:27:11;;;;;;;9.50;5.25;;;;;;;;;;5045779;27;38931;-79
2021/06/17 13:29:48;;;;;;;6.40;4.07;;;;;;;;;;5056932;28;48872;-80
2021/06/17 13:32:15;;;;;;;6.90;4.10;;;;;;;;;;5054198;28;38944;-80
2021/06/17 13:34:41;;;;;;;5.47;4.00;;;;;;;;;;5051706;28;39385;-81
2021/06/17 13:37:07;;;;;;;8.05;4.35;;;;;;;;;;5049112;27;39184;-78
2021/06/17 13:39:34;;;;;;;4.88;3.95;;;;;;;;;;5066372;28;39061;-79
2021/06/17 13:42:00;;;;;;;8.57;3.65;;;;;;;;;;5057958;28;39450;-79
2021/06/17 13:44:27;;;;;;;7.05;4.05;;;;;;;;;;5053747;27;47566;-77
2021/06/17 13:46:54;;;;;;;7.82;3.92;;;;;;;;;;5052285;28;38985;-80
2021/06/17 13:49:20;;;;;;;8.38;3.00;;;;;;;;;;5060648;28;37167;-79
2021/06/17 13:51:46;;;;;;;5.32;3.28;;;;;;;;;;5055758;27;38638;-78
2021/06/17 13:54:13;;;;;;;4.90;3.78;;;;;;;;;;5043283;28;39770;-79
2021/06/17 13:56:39;;;;;;;7.82;3.10;;;;;;;;;;5044430;28;40240;-80
2021/06/17 13:59:05;;;;;;;5.47;3.25;;;;;;;;;;5040877;28;37161;-79
2021/06/17 14:01:32;;;;;;;4.38;3.10;;;;;;;;;;5064440;27;39797;-80
2021/06/17 14:03:58;;;;;;;7.35;3.25;;;;;;;;;;5062879;28;37807;-78
2021/06/17 14:06:25;;;;;;;4.13;2.78;;;;;;;;;;5036401;28;38951;-78
2021/06/17 14:08:51;;;;;;;5.88;3.15;;;;;;;;;;5046302;28;36731;-78
2021/06/17 14:11:17;;;;;;;8.00;3.20;;;;;;;;;;5064193;27;40553;-79
2021/06/17 14:13:44;;;;;;;3.92;2.80;;;;;;;;;;5041090;28;39148;-79
2021/06/17 14:16:10;;;;;;;5.28;2.55;;;;;;;;;;5036421;27;39285;-78
2021/06/17 14:18:37;;;;;;;4.38;2.35;;;;;;;;;;5032014;28;37619;-78
2021/06/17 14:21:03;;;;;;;4.07;2.85;;;;;;;;;;5058864;28;40764;-78
2021/06/17 14:23:29;;;;;;;5.38;2.50;;;;;;;;;;5037690;28;40103;-78
2021/06/17 14:25:56;;;;;;;8.93;4.28;;;;;;;;;;5031865;27;38554;-77
2021/06/17 14:28:22;;;;;;;5.40;2.80;;;;;;;;;;5061536;28;37092;-76
2021/06/17 14:30:49;;;;;;;4.15;2.65;;;;;;;;;;5042426;28;38822;-78
2021/06/17 14:33:16;;;;;;;5.35;2.65;;;;;;;;;;5036644;28;39092;-77
2021/06/17 14:35:42;;;;;;;8.10;3.08;;;;;;;;;;5062400;27;40024;-76
2021/06/17 14:38:09;;;;;;;4.78;3.15;;;;;;;;;;5033620;28;37804;-76
2021/06/17 14:40:37;;;;;;;4.38;2.63;;;;;;;;;;5028067;28;41298;-79
2021/06/17 14:43:03;;;;;;;3.63;2.50;;;;;;;;;;5038601;28;39484;-80
2021/06/17 14:45:30;;;;;;;5.75;3.03;;;;;;;;;;5043232;28;38802;-77